Time;durP1;ratioP1;P1;durP2;ratioP2;P2;SDS_P1;SDS_P2;PMS_P1;PMS_P2;Temp;Humidity;BMP_temperature;BMP_pressure;BME280_temperature;BME280_humidity;BME280_pressure;Samples;Min_cycle;Max_cycle;Signal;HPM_P1;HPM_P2
2021/12/15 00:02:34;;;;;;;195.53;63.70;;;3.30;99.90;;;;;;5086821;28;20313;-73
2021/12/15 00:05:24;;;;;;;215.43;83.33;;;3.40;99.90;;;;;;5094755;28;20248;-74
2021/12/15 00:08:13;;;;;;;200.27;68.90;;;3.50;99.90;;;;;;5086438;28;20268;-73
2021/12/15 00:11:03;;;;;;;201.87;66.57;;;3.40;99.90;;;;;;5100553;27;20231;-72
2021/12/15 00:13:54;;;;;;;229.20;68.07;;;3.50;99.90;;;;;;5079506;28;20228;-72
2021/12/15 00:16:44;;;;;;;189.53;66.00;;;3.50;99.90;;;;;;5080920;28;20222;-73
2021/12/15 00:19:33;;;;;;;209.63;68.90;;;3.50;99.90;;;;;;5097665;28;20225;-72
2021/12/15 00:22:22;;;;;;;200.90;68.43;;;3.50;99.90;;;;;;5084211;28;20696;-73
2021/12/15 00:25:12;;;;;;;198.47;65.43;;;3.50;99.90;;;;;;5085819;28;20231;-73
2021/12/15 00:28:02;;;;;;;192.23;65.40;;;3.50;99.90;;;;;;5095937;28;20221;-74
2021/12/15 00:30:51;;;;;;;181.20;65.60;;;3.50;99.90;;;;;;5087175;28;20217;-73
2021/12/15 00:33:41;;;;;;;197.03;61.90;;;3.60;99.90;;;;;;5083582;28;20364;-73
2021/12/15 00:36:31;;;;;;;176.73;61.00;;;3.60;99.90;;;;;;5098745;28;20224;-73
2021/12/15 00:39:22;;;;;;;199.10;62.50;;;3.70;99.90;;;;;;5082085;28;20595;-73
2021/12/15 00:42:11;;;;;;;177.70;60.27;;;3.70;99.90;;;;;;5087159;28;20225;-73
2021/12/15 00:45:01;;;;;;;180.80;60.20;;;3.70;99.90;;;;;;5083440;28;20215;-74
2021/12/15 00:47:50;;;;;;;198.73;60.13;;;3.70;99.90;;;;;;5083685;28;20225;-74
2021/12/15 00:50:39;;;;;;;183.90;57.27;;;3.70;99.90;;;;;;5090599;28;20224;-74
2021/12/15 00:53:32;;;;;;;190.70;59.97;;;3.80;99.90;;;;;;5098509;28;20233;-74
2021/12/15 00:56:20;;;;;;;207.07;61.17;;;3.80;99.90;;;;;;5084087;28;20225;-74
2021/12/15 00:59:11;;;;;;;178.23;54.90;;;3.80;99.90;;;;;;5096794;28;20689;-73
2021/12/15 01:02:02;;;;;;;176.03;56.47;;;3.80;99.90;;;;;;5083282;28;20211;-73
2021/12/15 01:04:50;;;;;;;178.73;56.20;;;3.90;99.90;;;;;;5099762;28;20225;-72
2021/12/15 01:07:40;;;;;;;203.70;55.60;;;3.90;99.90;;;;;;5084734;28;20263;-73
2021/12/15 01:10:43;;;;;;;214.13;57.33;;;3.90;99.90;;;;;;5095794;28;20228;-73
2021/12/15 01:19:57;;;;;;;190.93;54.57;;;4.00;99.90;;;;;;5096145;27;20261;-72
2021/12/15 01:22:50;;;;;;;175.43;52.03;;;4.00;99.90;;;;;;5087158;28;20305;-72
2021/12/15 01:25:43;;;;;;;185.73;54.87;;;4.00;99.90;;;;;;5083289;28;20241;-73
2021/12/15 01:28:32;;;;;;;212.37;55.27;;;3.90;99.90;;;;;;5098195;28;20552;-72
2021/12/15 01:31:20;;;;;;;211.77;56.40;;;4.00;99.90;;;;;;5083240;28;20229;-72
2021/12/15 01:34:09;;;;;;;179.47;51.97;;;4.00;99.90;;;;;;5101737;28;20647;-72
2021/12/15 01:36:59;;;;;;;183.03;53.10;;;4.00;99.90;;;;;;5099948;28;20222;-74
2021/12/15 01:39:53;;;;;;;185.87;53.47;;;4.00;99.90;;;;;;5096419;28;20225;-72
2021/12/15 01:42:42;;;;;;;211.43;56.73;;;4.00;99.90;;;;;;5087212;28;20650;-73
2021/12/15 01:48:38;;;;;;;247.07;59.10;;;4.00;99.90;;;;;;5102670;28;20225;-72
2021/12/15 01:51:27;;;;;;;196.70;50.90;;;4.00;99.90;;;;;;5082344;28;20219;-74
2021/12/15 01:54:19;;;;;;;209.57;54.63;;;4.00;99.90;;;;;;5084605;28;20241;-71
2021/12/15 01:57:11;;;;;;;187.27;54.10;;;4.00;99.90;;;;;;5086095;28;20233;-73
2021/12/15 02:00:00;;;;;;;167.87;51.53;;;4.00;99.90;;;;;;5084506;28;20219;-73
2021/12/15 02:02:51;;;;;;;171.43;51.83;;;4.00;99.90;;;;;;5099087;28;20232;-72
2021/12/15 02:05:40;;;;;;;164.93;50.37;;;4.00;99.90;;;;;;5085053;28;20330;-73
2021/12/15 02:08:29;;;;;;;154.83;49.27;;;4.00;99.90;;;;;;5096726;28;20240;-74
2021/12/15 02:11:20;;;;;;;171.07;53.10;;;4.00;99.90;;;;;;5097880;28;20229;-74
2021/12/15 02:14:11;;;;;;;199.27;53.17;;;3.90;99.90;;;;;;5101157;28;20544;-73
2021/12/15 02:17:00;;;;;;;144.50;47.50;;;4.00;99.90;;;;;;5090248;28;20228;-73
2021/12/15 02:19:49;;;;;;;172.00;47.90;;;4.10;99.90;;;;;;5088177;28;20837;-74
2021/12/15 02:22:40;;;;;;;193.57;51.80;;;4.10;99.90;;;;;;5090461;28;20230;-75
2021/12/15 02:25:29;;;;;;;171.27;49.37;;;4.00;99.90;;;;;;5101656;27;20703;-74
2021/12/15 02:28:18;;;;;;;186.57;49.87;;;4.10;99.90;;;;;;5090368;28;20701;-73
2021/12/15 02:31:14;;;;;;;160.90;49.33;;;4.10;99.90;;;;;;5088584;28;20579;-75
2021/12/15 02:34:19;;;;;;;186.10;50.33;;;4.10;99.90;;;;;;5087026;28;20297;-72
2021/12/15 02:37:17;;;;;;;158.73;47.20;;;4.10;99.90;;;;;;5085117;28;20326;-74
2021/12/15 02:40:13;;;;;;;154.03;46.37;;;4.10;99.90;;;;;;5100233;27;20730;-74
2021/12/15 02:43:02;;;;;;;187.63;49.43;;;4.20;99.90;;;;;;5085447;28;20264;-73
2021/12/15 02:45:50;;;;;;;202.90;47.33;;;4.10;99.90;;;;;;5103368;27;20223;-72
2021/12/15 02:48:39;;;;;;;196.90;47.97;;;4.20;99.90;;;;;;5101474;27;20405;-74
2021/12/15 02:51:29;;;;;;;163.00;45.80;;;4.10;99.90;;;;;;5098212;27;20226;-73
2021/12/15 02:54:20;;;;;;;192.53;48.37;;;4.10;99.90;;;;;;5102198;28;20214;-72
2021/12/15 02:57:12;;;;;;;153.17;46.03;;;4.10;99.90;;;;;;5099773;28;20246;-72
2021/12/15 03:00:05;;;;;;;148.53;43.20;;;4.10;99.90;;;;;;5084545;27;20347;-72
2021/12/15 03:06:24;;;;;;;144.83;43.00;;;4.20;99.90;;;;;;5036423;28;20245;-74
2021/12/15 03:15:16;;;;;;;197.40;46.07;;;4.20;99.90;;;;;;5100727;27;20230;-74
2021/12/15 03:15:34;;;;;;;148.27;42.93;;;4.20;99.90;;;;;;5084472;28;20230;-73
2021/12/15 03:18:24;;;;;;;147.67;43.07;;;4.30;99.90;;;;;;5099099;28;20370;-72
2021/12/15 03:21:16;;;;;;;135.27;42.47;;;4.20;99.90;;;;;;5098513;28;20227;-73
2021/12/15 03:24:11;;;;;;;133.77;40.73;;;4.30;99.90;;;;;;5088146;28;20237;-73
2021/12/15 03:27:04;;;;;;;134.07;40.37;;;4.20;99.90;;;;;;5085470;28;20603;-70
2021/12/15 03:36:35;;;;;;;109.47;38.63;;;4.20;99.90;;;;;;5100207;28;20224;-72
2021/12/15 03:39:26;;;;;;;138.80;41.47;;;4.30;99.90;;;;;;5088839;27;20229;-74
2021/12/15 03:42:18;;;;;;;139.50;39.80;;;4.20;99.90;;;;;;5087155;28;20241;-71
2021/12/15 03:45:11;;;;;;;120.67;40.60;;;4.30;99.90;;;;;;5089792;28;20233;-74
2021/12/15 03:48:02;;;;;;;123.57;37.73;;;4.20;99.90;;;;;;5102708;27;20217;-73
2021/12/15 03:50:53;;;;;;;119.20;39.17;;;4.30;99.90;;;;;;5100608;27;20250;-73
2021/12/15 03:53:43;;;;;;;119.07;38.77;;;4.30;99.90;;;;;;5079938;28;20218;-73
2021/12/15 03:56:34;;;;;;;118.30;38.47;;;4.30;99.90;;;;;;5090069;27;20710;-72
2021/12/15 03:59:25;;;;;;;96.47;35.53;;;4.30;99.90;;;;;;5086751;28;20233;-72
2021/12/15 04:02:18;;;;;;;107.33;35.57;;;4.30;99.90;;;;;;5099560;28;20221;-73
2021/12/15 04:05:09;;;;;;;105.73;36.47;;;4.40;99.90;;;;;;5100099;28;20225;-72
2021/12/15 04:07:58;;;;;;;107.77;36.00;;;4.30;99.90;;;;;;5087002;28;20315;-72
2021/12/15 04:10:47;;;;;;;111.57;36.27;;;4.40;99.90;;;;;;5084208;28;20727;-73
2021/12/15 04:13:36;;;;;;;107.10;34.73;;;4.40;99.90;;;;;;5086052;28;20232;-73
2021/12/15 04:16:42;;;;;;;94.30;32.97;;;4.30;99.90;;;;;;5103645;28;20563;-73
2021/12/15 04:19:34;;;;;;;97.23;33.47;;;4.30;99.90;;;;;;5103914;28;20267;-72
2021/12/15 04:22:24;;;;;;;108.40;34.80;;;4.30;99.90;;;;;;5089072;28;20218;-72
2021/12/15 04:25:15;;;;;;;83.33;32.83;;;4.40;99.90;;;;;;5098121;28;20361;-72
2021/12/15 04:28:09;;;;;;;91.17;33.53;;;4.40;99.90;;;;;;5104876;28;20215;-71
2021/12/15 04:31:00;;;;;;;98.27;34.70;;;4.40;99.90;;;;;;5099837;28;20214;-73
2021/12/15 04:33:55;;;;;;;93.40;32.93;;;4.40;99.90;;;;;;5098121;28;20330;-73
2021/12/15 04:36:48;;;;;;;93.23;34.17;;;4.40;99.90;;;;;;5100740;28;20218;-71
2021/12/15 04:39:41;;;;;;;105.53;34.27;;;4.40;99.90;;;;;;5103573;28;20230;-72
2021/12/15 04:42:30;;;;;;;92.83;33.97;;;4.40;99.90;;;;;;5099820;28;20238;-72
2021/12/15 04:45:20;;;;;;;93.43;31.83;;;4.50;99.90;;;;;;5085084;28;20230;-72
2021/12/15 04:48:11;;;;;;;90.93;32.10;;;4.40;99.90;;;;;;5097599;28;20266;-72
2021/12/15 04:50:59;;;;;;;91.80;31.27;;;4.40;99.90;;;;;;5083113;28;20223;-71
2021/12/15 04:53:52;;;;;;;94.27;32.90;;;4.40;99.90;;;;;;5085199;28;20305;-72
2021/12/15 04:56:41;;;;;;;88.63;32.37;;;4.40;99.90;;;;;;5101457;28;20218;-71
2021/12/15 04:59:29;;;;;;;88.20;32.23;;;4.40;99.90;;;;;;5098767;28;20226;-72
2021/12/15 05:02:20;;;;;;;92.70;31.77;;;4.40;99.90;;;;;;5089345;28;20320;-72
2021/12/15 05:05:10;;;;;;;90.80;32.43;;;4.40;99.90;;;;;;5098562;28;20227;-72
2021/12/15 05:07:58;;;;;;;95.53;33.40;;;4.30;99.90;;;;;;5099459;28;20221;-73
2021/12/15 05:10:50;;;;;;;84.37;32.30;;;4.40;99.90;;;;;;5103218;28;20848;-73
2021/12/15 05:13:40;;;;;;;86.47;32.13;;;4.40;99.90;;;;;;5088017;28;20280;-71
2021/12/15 05:16:29;;;;;;;89.33;32.43;;;4.50;99.90;;;;;;5077837;28;20226;-72
2021/12/15 05:19:18;;;;;;;86.30;32.20;;;4.50;99.90;;;;;;5085162;28;20227;-72
2021/12/15 05:22:07;;;;;;;96.00;33.73;;;4.50;99.90;;;;;;5085743;28;20221;-71
2021/12/15 05:24:55;;;;;;;90.63;31.93;;;4.40;99.90;;;;;;5084007;28;20233;-71
2021/12/15 05:27:46;;;;;;;86.97;32.93;;;4.40;99.90;;;;;;5080108;28;20217;-72
2021/12/15 05:30:36;;;;;;;87.03;32.53;;;4.40;99.90;;;;;;5099559;28;20215;-73
2021/12/15 05:33:25;;;;;;;78.57;32.97;;;4.40;99.90;;;;;;5098053;28;20311;-73
2021/12/15 05:36:14;;;;;;;91.87;34.13;;;4.40;99.90;;;;;;5099335;28;20214;-71
2021/12/15 05:39:05;;;;;;;90.27;34.23;;;4.40;99.90;;;;;;5098038;28;20246;-72
2021/12/15 05:41:54;;;;;;;82.20;32.67;;;4.40;99.90;;;;;;5098389;28;20226;-73
2021/12/15 05:44:44;;;;;;;86.57;33.63;;;4.50;99.90;;;;;;5084021;28;20233;-73
2021/12/15 05:47:34;;;;;;;89.73;33.33;;;4.40;99.90;;;;;;5102073;28;20242;-72
2021/12/15 05:50:23;;;;;;;82.87;33.80;;;4.40;99.90;;;;;;5073168;28;20241;-73
2021/12/15 05:53:12;;;;;;;84.90;32.67;;;4.50;99.90;;;;;;5101162;28;20227;-73
2021/12/15 05:56:01;;;;;;;84.40;32.10;;;4.50;99.90;;;;;;5106979;27;20271;-73
2021/12/15 05:58:50;;;;;;;87.10;32.83;;;4.50;99.90;;;;;;5089871;28;20227;-72
2021/12/15 06:01:41;;;;;;;99.17;34.47;;;4.50;99.90;;;;;;5101951;27;20211;-74
2021/12/15 06:04:29;;;;;;;90.27;33.97;;;4.50;99.90;;;;;;5100111;27;20225;-73
2021/12/15 06:07:18;;;;;;;84.00;32.13;;;4.50;99.90;;;;;;5093318;28;20226;-73
2021/12/15 06:10:10;;;;;;;86.73;32.57;;;4.40;99.90;;;;;;5090227;28;20242;-73
2021/12/15 06:13:01;;;;;;;99.13;33.83;;;4.40;99.90;;;;;;5099730;28;20230;-73
2021/12/15 06:15:50;;;;;;;86.40;32.70;;;4.40;99.90;;;;;;5099942;27;20600;-73
2021/12/15 06:18:40;;;;;;;90.90;33.77;;;4.40;99.90;;;;;;5102726;28;20587;-73
2021/12/15 06:21:31;;;;;;;88.33;32.87;;;4.40;99.90;;;;;;5103089;27;20217;-73
2021/12/15 06:24:19;;;;;;;89.70;32.57;;;4.40;99.90;;;;;;5099229;27;20676;-73
2021/12/15 06:27:17;;;;;;;83.33;32.23;;;4.40;99.90;;;;;;5100779;27;25537;-71
2021/12/15 06:30:07;;;;;;;93.90;33.97;;;4.50;99.90;;;;;;5101837;28;21097;-72
2021/12/15 06:32:56;;;;;;;84.87;32.37;;;4.50;99.90;;;;;;5084385;28;20678;-70
2021/12/15 06:35:53;;;;;;;80.73;31.40;;;4.50;99.90;;;;;;5088864;28;20587;-72
2021/12/15 06:38:45;;;;;;;86.57;33.40;;;4.50;99.90;;;;;;5090903;28;20866;-73
2021/12/15 06:41:35;;;;;;;86.30;31.43;;;4.50;99.90;;;;;;5087070;28;20230;-72
2021/12/15 06:44:24;;;;;;;79.67;30.20;;;4.50;99.90;;;;;;5099561;28;20211;-72
2021/12/15 06:47:33;;;;;;;84.17;31.17;;;4.50;99.90;;;;;;5098605;28;20229;-73
2021/12/15 06:59:39;;;;;;;85.43;32.33;;;4.50;99.90;;;;;;5101638;27;20297;-73
2021/12/15 07:02:28;;;;;;;83.43;32.83;;;4.60;99.90;;;;;;5088107;28;20230;-74
2021/12/15 07:05:19;;;;;;;84.63;31.77;;;4.60;99.90;;;;;;5102875;27;20218;-74
2021/12/15 07:08:09;;;;;;;80.93;31.17;;;4.60;99.90;;;;;;5105459;27;20215;-72
2021/12/15 07:11:01;;;;;;;80.67;31.07;;;4.60;99.90;;;;;;5101891;28;21108;-72
2021/12/15 07:13:50;;;;;;;71.53;30.43;;;4.70;99.90;;;;;;5087105;28;20218;-72
2021/12/15 07:16:43;;;;;;;77.67;29.87;;;4.70;99.90;;;;;;5100477;28;20290;-69
2021/12/15 07:19:44;;;;;;;75.77;28.90;;;4.70;99.90;;;;;;5097619;28;20219;-73
2021/12/15 07:22:43;;;;;;;76.60;29.13;;;4.70;99.90;;;;;;5098678;27;20686;-71
2021/12/15 07:25:32;;;;;;;78.23;29.80;;;4.70;99.90;;;;;;5099533;28;20313;-72
2021/12/15 07:28:24;;;;;;;80.23;29.37;;;4.80;99.90;;;;;;5089609;28;20355;-71
2021/12/15 07:31:15;;;;;;;66.63;29.40;;;4.80;99.90;;;;;;5085667;28;20219;-72
2021/12/15 07:34:04;;;;;;;65.47;30.07;;;4.80;99.90;;;;;;5098354;28;20714;-71
2021/12/15 07:36:56;;;;;;;67.17;27.77;;;4.80;99.90;;;;;;5099346;28;20219;-73
2021/12/15 07:39:57;;;;;;;63.23;28.00;;;4.80;99.90;;;;;;5100335;28;20337;-74
2021/12/15 07:42:56;;;;;;;68.10;29.50;;;4.80;99.90;;;;;;5089240;27;20233;-72
2021/12/15 07:45:52;;;;;;;72.03;28.33;;;4.80;99.90;;;;;;5086286;28;20223;-73
2021/12/15 07:48:41;;;;;;;76.50;30.90;;;4.90;99.90;;;;;;5089784;28;20233;-74
2021/12/15 07:51:30;;;;;;;78.63;29.67;;;5.00;99.90;;;;;;5102000;27;20328;-73
2021/12/15 07:54:19;;;;;;;72.23;30.97;;;5.00;99.90;;;;;;5102762;28;20223;-71
2021/12/15 07:57:10;;;;;;;76.43;32.90;;;5.00;99.90;;;;;;5085559;28;20227;-70
2021/12/15 07:59:59;;;;;;;67.27;31.33;;;5.00;99.90;;;;;;5086807;28;20327;-70
2021/12/15 08:02:50;;;;;;;70.10;30.93;;;5.10;99.90;;;;;;5099545;28;20223;-69
2021/12/15 08:05:40;;;;;;;78.20;32.20;;;5.20;99.90;;;;;;5086256;28;20214;-73
2021/12/15 08:08:30;;;;;;;73.03;32.47;;;5.10;99.90;;;;;;5099968;28;20222;-74
2021/12/15 08:11:23;;;;;;;77.93;31.80;;;5.20;99.90;;;;;;5098533;28;20222;-74
2021/12/15 08:14:15;;;;;;;80.90;32.27;;;5.20;99.90;;;;;;5083559;28;20295;-71
2021/12/15 08:17:04;;;;;;;72.90;30.50;;;5.20;99.90;;;;;;5101077;28;20234;-72
2021/12/15 08:19:58;;;;;;;84.27;33.97;;;5.10;99.90;;;;;;5099366;28;20219;-72
2021/12/15 08:22:47;;;;;;;87.80;33.00;;;5.20;99.90;;;;;;5099665;28;20310;-71
2021/12/15 08:25:38;;;;;;;77.07;33.07;;;5.10;99.90;;;;;;5097624;28;20222;-71
2021/12/15 08:29:06;;;;;;;88.37;33.63;;;5.10;99.90;;;;;;5098112;28;20254;-72
2021/12/15 08:31:56;;;;;;;98.10;36.37;;;5.10;99.90;;;;;;5095844;28;20231;-72
2021/12/15 08:34:45;;;;;;;87.90;34.70;;;5.20;99.90;;;;;;5097367;28;20434;-72
2021/12/15 08:37:36;;;;;;;95.00;34.40;;;5.10;99.90;;;;;;5081851;28;20219;-73
2021/12/15 08:40:26;;;;;;;110.70;37.73;;;5.10;99.90;;;;;;5080983;28;20226;-72
2021/12/15 08:43:16;;;;;;;108.90;36.37;;;5.10;99.90;;;;;;5090706;27;20609;-72
2021/12/15 08:46:10;;;;;;;121.57;37.37;;;5.10;99.90;;;;;;5082966;28;20230;-72
2021/12/15 08:49:00;;;;;;;102.67;33.83;;;5.20;99.90;;;;;;5081549;28;20238;-73
2021/12/15 08:51:49;;;;;;;116.50;36.40;;;5.10;99.90;;;;;;5094423;28;20769;-73
2021/12/15 08:54:39;;;;;;;107.73;36.03;;;5.10;99.90;;;;;;5081896;28;20282;-70
2021/12/15 08:57:28;;;;;;;99.93;34.87;;;5.10;99.90;;;;;;5093146;27;20215;-71
2021/12/15 09:00:18;;;;;;;110.50;36.30;;;5.10;99.90;;;;;;5096917;28;20233;-72
2021/12/15 09:03:07;;;;;;;108.57;36.43;;;5.10;99.90;;;;;;5099252;27;20297;-72
2021/12/15 09:05:59;;;;;;;99.00;36.30;;;5.10;99.90;;;;;;5097187;27;20230;-74
2021/12/15 09:08:48;;;;;;;92.40;34.23;;;5.10;99.90;;;;;;5078198;28;20226;-73
2021/12/15 09:11:38;;;;;;;86.47;33.17;;;5.10;99.90;;;;;;5103049;28;20214;-70
2021/12/15 09:14:27;;;;;;;78.97;31.63;;;5.00;99.90;;;;;;5101186;28;20218;-70
2021/12/15 09:17:17;;;;;;;85.03;31.83;;;5.10;99.90;;;;;;5079679;28;20233;-71
2021/12/15 09:20:07;;;;;;;77.77;31.33;;;5.00;99.90;;;;;;5097994;28;20226;-73
2021/12/15 09:22:58;;;;;;;82.00;31.30;;;5.10;99.90;;;;;;5096591;28;20238;-72
2021/12/15 09:25:48;;;;;;;72.07;29.47;;;5.10;99.90;;;;;;5082997;28;20222;-72
2021/12/15 09:28:38;;;;;;;65.57;27.27;;;5.20;99.90;;;;;;5096880;28;20298;-66
2021/12/15 09:31:28;;;;;;;61.97;26.67;;;5.20;99.90;;;;;;5083647;28;20255;-66
2021/12/15 09:34:18;;;;;;;62.97;26.77;;;5.20;99.90;;;;;;5095577;28;20218;-66
2021/12/15 09:37:07;;;;;;;58.33;25.77;;;5.20;99.90;;;;;;5095147;28;20230;-67
2021/12/15 09:39:55;;;;;;;63.87;26.20;;;5.20;99.90;;;;;;5096368;28;20234;-67
2021/12/15 09:42:44;;;;;;;54.30;23.40;;;5.30;99.90;;;;;;5097234;28;20368;-65
2021/12/15 09:45:42;;;;;;;59.77;24.33;;;5.20;99.90;;;;;;5079288;28;20788;-66
2021/12/15 10:04:22;;;;;;;64.90;26.67;;;5.40;99.90;;;;;;5096563;28;20281;-66
2021/12/15 10:10:35;;;;;;;61.90;25.73;;;5.50;99.90;;;;;;5082415;28;20246;-71
2021/12/15 10:20:20;;;;;;;56.13;22.97;;;5.70;99.90;;;;;;5033418;28;20286;-70
2021/12/15 10:23:14;;;;;;;55.40;24.87;;;5.70;99.90;;;;;;5046979;28;21105;-67
2021/12/15 10:26:05;;;;;;;58.47;24.93;;;5.70;99.90;;;;;;5074270;28;20230;-69
2021/12/15 10:28:54;;;;;;;63.13;26.20;;;5.70;99.90;;;;;;5072321;28;20370;-69
2021/12/15 10:31:44;;;;;;;57.50;23.90;;;5.70;99.90;;;;;;5070885;28;21019;-70
2021/12/15 10:34:34;;;;;;;59.43;24.57;;;5.80;99.90;;;;;;5082028;28;20250;-69
2021/12/15 10:37:26;;;;;;;58.20;24.87;;;5.80;99.90;;;;;;5075085;28;20593;-68
2021/12/15 10:40:21;;;;;;;68.50;26.17;;;5.80;99.90;;;;;;5093888;27;20231;-67
2021/12/15 10:43:10;;;;;;;70.17;27.20;;;5.90;99.90;;;;;;5080509;28;20231;-68
2021/12/15 10:46:02;;;;;;;69.73;27.77;;;5.90;99.90;;;;;;5077849;28;20220;-68
2021/12/15 10:48:54;;;;;;;68.27;26.77;;;5.90;99.90;;;;;;5081377;28;20701;-68
2021/12/15 10:51:47;;;;;;;65.57;25.80;;;5.90;99.90;;;;;;5083362;28;20219;-68
2021/12/15 10:54:40;;;;;;;63.57;26.30;;;5.90;99.90;;;;;;5078765;28;20260;-69
2021/12/15 10:57:32;;;;;;;64.93;26.40;;;5.80;99.90;;;;;;5070874;28;20311;-70
2021/12/15 11:00:22;;;;;;;62.13;26.80;;;5.90;99.90;;;;;;5070533;28;20223;-71
2021/12/15 11:03:16;;;;;;;63.83;26.77;;;5.90;99.90;;;;;;5079582;28;20352;-70
2021/12/15 11:06:20;;;;;;;67.50;27.93;;;5.90;99.90;;;;;;5070933;28;20233;-70
2021/12/15 11:09:20;;;;;;;68.33;28.73;;;6.00;99.90;;;;;;5070585;28;21100;-69
2021/12/15 11:12:12;;;;;;;76.97;29.27;;;5.90;99.90;;;;;;5076331;28;20743;-70
2021/12/15 11:15:04;;;;;;;65.43;27.50;;;5.90;99.90;;;;;;5075359;28;20216;-69
2021/12/15 11:17:55;;;;;;;73.83;28.13;;;6.00;99.90;;;;;;5076368;28;20757;-70
2021/12/15 11:20:46;;;;;;;66.50;27.10;;;6.00;99.90;;;;;;5077966;28;20227;-70
2021/12/15 11:23:36;;;;;;;74.97;27.70;;;6.10;99.90;;;;;;5077751;28;21076;-71
2021/12/15 11:26:27;;;;;;;71.43;27.53;;;6.20;99.90;;;;;;5077916;28;20216;-70
2021/12/15 11:29:17;;;;;;;77.90;27.70;;;6.30;99.90;;;;;;5084578;28;20230;-70
2021/12/15 11:32:06;;;;;;;70.47;27.83;;;6.20;99.90;;;;;;5078260;28;20410;-69
2021/12/15 11:35:02;;;;;;;71.23;27.87;;;6.30;99.90;;;;;;5077428;28;20227;-71
2021/12/15 11:37:56;;;;;;;69.17;27.90;;;6.30;99.90;;;;;;5080178;28;20227;-72
2021/12/15 11:40:51;;;;;;;69.03;27.53;;;6.20;99.90;;;;;;5072691;28;20719;-77
2021/12/15 11:43:46;;;;;;;62.23;26.47;;;6.30;99.90;;;;;;5081214;28;20230;-74
2021/12/15 11:46:37;;;;;;;72.37;29.33;;;6.20;99.90;;;;;;5080393;28;20219;-74
2021/12/15 11:49:29;;;;;;;73.80;28.87;;;6.20;99.90;;;;;;5080498;28;20216;-74
2021/12/15 11:52:22;;;;;;;77.20;28.90;;;6.20;99.90;;;;;;5082396;28;20234;-70
2021/12/15 11:55:24;;;;;;;80.60;30.17;;;6.20;99.90;;;;;;5073432;28;20581;-69
2021/12/15 11:58:12;;;;;;;75.43;29.63;;;6.20;99.90;;;;;;5080852;28;20276;-69
2021/12/15 12:01:03;;;;;;;79.53;29.70;;;6.20;99.90;;;;;;5076247;28;20219;-68
2021/12/15 12:04:10;;;;;;;76.37;28.67;;;6.30;99.90;;;;;;5078743;28;20227;-65
2021/12/15 12:07:15;;;;;;;78.33;29.57;;;6.30;99.90;;;;;;5079174;28;20840;-71
2021/12/15 12:10:08;;;;;;;69.90;27.83;;;6.30;99.90;;;;;;5073855;28;21003;-69
2021/12/15 12:13:04;;;;;;;74.30;28.97;;;6.30;99.90;;;;;;5069643;28;20222;-71
2021/12/15 12:15:56;;;;;;;72.93;29.80;;;6.40;99.90;;;;;;5088669;28;20262;-71
2021/12/15 12:18:46;;;;;;;105.40;31.53;;;6.30;99.90;;;;;;5092121;27;20226;-74
2021/12/15 12:21:35;;;;;;;94.87;30.97;;;6.30;99.90;;;;;;5081622;28;20238;-74
2021/12/15 12:24:25;;;;;;;77.27;30.10;;;6.20;99.90;;;;;;5077784;27;20299;-73
2021/12/15 12:27:15;;;;;;;77.07;29.60;;;6.30;99.90;;;;;;5094123;28;20625;-72
2021/12/15 12:30:08;;;;;;;77.77;31.83;;;6.40;99.90;;;;;;5095013;27;20226;-71
2021/12/15 12:32:59;;;;;;;82.97;31.80;;;6.50;99.90;;;;;;5094237;27;20223;-72
2021/12/15 12:35:52;;;;;;;84.40;32.43;;;6.50;99.90;;;;;;5097477;27;20215;-71
2021/12/15 12:38:47;;;;;;;76.53;30.47;;;6.50;99.90;;;;;;5095084;28;20219;-70
2021/12/15 12:41:43;;;;;;;74.40;29.47;;;6.50;99.90;;;;;;5082015;27;20253;-73
2021/12/15 12:44:36;;;;;;;73.77;30.13;;;6.50;99.90;;;;;;5092748;28;20219;-69
2021/12/15 12:47:34;;;;;;;74.37;29.90;;;6.50;99.90;;;;;;5082323;28;20951;-68
2021/12/15 13:00:05;;;;;;;70.70;30.33;;;6.50;99.90;;;;;;5095421;28;20568;-69
2021/12/15 13:03:00;;;;;;;75.13;30.67;;;6.50;99.90;;;;;;5097716;28;20263;-69
2021/12/15 13:05:53;;;;;;;75.17;30.43;;;6.50;99.90;;;;;;5093944;28;20590;-69
2021/12/15 13:08:45;;;;;;;79.90;32.43;;;6.50;99.90;;;;;;5093727;27;20215;-69
2021/12/15 13:11:38;;;;;;;84.50;32.10;;;6.60;99.90;;;;;;5097080;28;20227;-70
2021/12/15 13:14:37;;;;;;;80.97;31.67;;;6.60;99.90;;;;;;5082303;28;20230;-70
2021/12/15 13:17:34;;;;;;;80.67;32.50;;;6.60;99.90;;;;;;5082116;28;20322;-70
2021/12/15 13:20:26;;;;;;;82.53;32.57;;;6.60;99.90;;;;;;5079109;28;20235;-70
2021/12/15 13:23:38;;;;;;;77.83;32.13;;;6.50;99.90;;;;;;5077930;28;20215;-69
2021/12/15 13:29:57;;;;;;;74.17;30.47;;;6.60;99.90;;;;;;5077806;28;20215;-70
2021/12/15 13:32:48;;;;;;;70.20;30.27;;;6.50;99.90;;;;;;5079577;28;20344;-70
2021/12/15 13:35:44;;;;;;;72.43;29.33;;;6.60;99.90;;;;;;5078785;28;20568;-72
2021/12/15 13:38:35;;;;;;;69.47;28.93;;;6.60;99.90;;;;;;5084166;28;20342;-70
2021/12/15 13:41:38;;;;;;;75.60;30.93;;;6.50;99.90;;;;;;5083016;28;20291;-69
2021/12/15 13:44:35;;;;;;;75.73;29.87;;;6.50;99.90;;;;;;5083976;28;20234;-70
2021/12/15 13:47:26;;;;;;;78.07;29.57;;;6.40;99.90;;;;;;5080968;28;20215;-74
2021/12/15 13:50:18;;;;;;;77.40;30.10;;;6.50;99.90;;;;;;5077728;28;20241;-74
2021/12/15 13:53:07;;;;;;;76.80;30.40;;;6.50;99.90;;;;;;5087084;28;20231;-72
2021/12/15 13:55:57;;;;;;;85.70;32.63;;;6.50;99.90;;;;;;5088302;28;20212;-72
2021/12/15 13:58:45;;;;;;;89.30;32.43;;;6.50;99.90;;;;;;5077279;28;20211;-69
2021/12/15 14:01:36;;;;;;;88.50;32.43;;;6.50;99.90;;;;;;5077677;28;20270;-69
2021/12/15 14:04:40;;;;;;;82.60;31.70;;;6.50;99.90;;;;;;5082753;28;20223;-69
2021/12/15 14:07:37;;;;;;;83.83;33.27;;;6.50;99.90;;;;;;5083804;28;20219;-71
2021/12/15 14:10:59;;;;;;;90.07;32.67;;;6.50;99.90;;;;;;5082017;28;20227;-69
2021/12/15 14:13:52;;;;;;;82.57;31.63;;;6.50;99.90;;;;;;5075494;28;20208;-72
2021/12/15 14:16:48;;;;;;;84.63;32.87;;;6.50;99.90;;;;;;5082005;28;20241;-73
2021/12/15 14:19:38;;;;;;;83.53;32.57;;;6.50;99.90;;;;;;5081999;28;20279;-71
2021/12/15 14:22:27;;;;;;;85.37;34.33;;;6.50;99.90;;;;;;5077777;28;20215;-71
2021/12/15 14:25:15;;;;;;;88.60;33.80;;;6.50;99.90;;;;;;5081155;28;20304;-71
2021/12/15 14:28:08;;;;;;;95.33;36.23;;;6.50;99.90;;;;;;5081408;28;20936;-72
2021/12/15 14:31:03;;;;;;;81.70;32.73;;;6.50;99.90;;;;;;5094304;28;20275;-70
2021/12/15 14:33:55;;;;;;;89.47;33.97;;;6.50;99.90;;;;;;5079738;28;20219;-70
2021/12/15 14:36:46;;;;;;;95.40;37.40;;;6.50;99.90;;;;;;5071907;28;20295;-73
2021/12/15 14:39:38;;;;;;;91.70;35.97;;;6.50;99.90;;;;;;5068955;28;20229;-71
2021/12/15 14:42:29;;;;;;;88.40;35.27;;;6.40;99.90;;;;;;5085280;28;20223;-71
2021/12/15 14:45:21;;;;;;;89.00;35.07;;;6.40;99.90;;;;;;5091585;28;20624;-72
2021/12/15 14:48:28;;;;;;;82.80;35.33;;;6.40;99.90;;;;;;5085886;28;20591;-72
2021/12/15 14:51:33;;;;;;;89.13;36.27;;;6.50;99.90;;;;;;5080047;28;20235;-70
2021/12/15 14:54:24;;;;;;;89.00;36.37;;;6.50;99.90;;;;;;5086925;28;20291;-70
2021/12/15 14:57:17;;;;;;;81.93;35.10;;;6.50;99.90;;;;;;5082207;28;21091;-71
2021/12/15 15:00:11;;;;;;;100.37;39.23;;;6.50;99.90;;;;;;5081215;28;20232;-71
2021/12/15 15:03:03;;;;;;;90.70;40.23;;;6.60;99.90;;;;;;5077530;28;20229;-70
2021/12/15 15:05:52;;;;;;;88.30;38.30;;;6.50;99.90;;;;;;5080400;28;20239;-71
2021/12/15 15:08:45;;;;;;;90.27;38.40;;;6.50;99.90;;;;;;5080285;28;20659;-72
2021/12/15 15:12:04;;;;;;;92.50;39.97;;;6.60;99.90;;;;;;5074067;28;20242;-75
2021/12/15 15:14:56;;;;;;;89.60;40.07;;;6.60;99.90;;;;;;5081712;28;20230;-71
2021/12/15 15:17:51;;;;;;;90.83;39.53;;;6.60;99.90;;;;;;5096430;28;20234;-70
2021/12/15 15:20:42;;;;;;;86.47;37.50;;;6.60;99.90;;;;;;5091909;28;20301;-69
2021/12/15 15:23:32;;;;;;;86.77;38.87;;;6.60;99.90;;;;;;5087840;28;20392;-68
2021/12/15 15:26:22;;;;;;;90.57;40.17;;;6.70;99.90;;;;;;5105555;28;20242;-69
2021/12/15 15:29:11;;;;;;;90.07;38.37;;;6.60;99.90;;;;;;5103645;28;20214;-71
2021/12/15 15:32:09;;;;;;;84.40;38.60;;;6.70;99.90;;;;;;5100526;28;20214;-71
2021/12/15 15:35:07;;;;;;;80.20;37.73;;;6.70;99.90;;;;;;5096933;28;20230;-72
2021/12/15 15:37:58;;;;;;;82.80;37.23;;;6.60;99.90;;;;;;5105055;28;20225;-80
2021/12/15 15:40:48;;;;;;;85.40;37.60;;;6.60;99.90;;;;;;5114392;28;20682;-80
2021/12/15 15:43:43;;;;;;;82.97;39.13;;;6.60;99.90;;;;;;5108637;28;20222;-80
2021/12/15 15:46:35;;;;;;;85.07;39.17;;;6.50;99.90;;;;;;5106717;28;20222;-80
2021/12/15 15:49:24;;;;;;;87.63;39.37;;;6.60;99.90;;;;;;5088039;28;20230;-81
2021/12/15 15:52:13;;;;;;;89.17;40.43;;;6.60;99.90;;;;;;5088156;28;20695;-81